Time;durP1;ratioP1;P1;durP2;ratioP2;P2;SDS_P1;SDS_P2;PMS_P1;PMS_P2;Temp;Humidity;BMP_temperature;BMP_pressure;BME280_temperature;BME280_humidity;BME280_pressure;Samples;Min_cycle;Max_cycle;Signal;HPM_P1;HPM_P2
2022/04/30 00:00:45;;;;;;;;;37.50;32.50;;;;;;;;5116066;27;45178;-79
2022/04/30 00:03:10;;;;;;;;;40.25;34.50;;;;;;;;5111460;27;45378;-80
2022/04/30 00:05:35;;;;;;;;;47.75;37.75;;;;;;;;5107042;27;48258;-80
2022/04/30 00:08:03;;;;;;;;;45.00;37.00;;;;;;;;5107351;27;45218;-80
2022/04/30 00:10:29;;;;;;;;;46.50;37.00;;;;;;;;5108255;27;45347;-79
2022/04/30 00:12:54;;;;;;;;;47.00;36.75;;;;;;;;5109166;27;45552;-80
2022/04/30 00:15:20;;;;;;;;;41.50;35.25;;;;;;;;5095046;27;47558;-80
2022/04/30 00:17:46;;;;;;;;;46.75;38.50;;;;;;;;5086870;27;45310;-80
2022/04/30 00:20:11;;;;;;;;;46.50;36.25;;;;;;;;5084350;27;45294;-80
2022/04/30 00:22:37;;;;;;;;;45.25;38.25;;;;;;;;5082745;27;45503;-80
2022/04/30 00:25:02;;;;;;;;;45.25;37.50;;;;;;;;5087751;28;45639;-78
2022/04/30 00:27:27;;;;;;;;;44.75;36.00;;;;;;;;5089251;27;45274;-80
2022/04/30 00:29:53;;;;;;;;;41.00;35.75;;;;;;;;5082547;28;45248;-80
2022/04/30 00:32:18;;;;;;;;;45.75;36.75;;;;;;;;5081284;27;45212;-80
2022/04/30 00:34:45;;;;;;;;;45.50;37.00;;;;;;;;5081196;28;46516;-80
2022/04/30 00:37:10;;;;;;;;;41.00;34.50;;;;;;;;5081533;28;45153;-80
2022/04/30 00:39:35;;;;;;;;;46.25;38.75;;;;;;;;5085609;28;45251;-80
2022/04/30 00:42:01;;;;;;;;;36.50;33.50;;;;;;;;5084836;27;45177;-80
2022/04/30 00:44:27;;;;;;;;;44.75;34.25;;;;;;;;5082273;28;46580;-81
2022/04/30 00:46:53;;;;;;;;;45.00;36.75;;;;;;;;5081036;28;45370;-81
2022/04/30 00:49:19;;;;;;;;;40.75;35.50;;;;;;;;5082074;27;45435;-81
2022/04/30 00:51:44;;;;;;;;;47.00;36.50;;;;;;;;5084085;27;45469;-81
2022/04/30 00:54:11;;;;;;;;;44.00;35.25;;;;;;;;5086369;27;45361;-80
2022/04/30 00:56:43;;;;;;;;;42.75;37.00;;;;;;;;5089510;27;45377;-78
2022/04/30 00:59:09;;;;;;;;;44.00;38.00;;;;;;;;5084623;28;45345;-80
2022/04/30 01:01:35;;;;;;;;;42.75;35.50;;;;;;;;5087273;27;45334;-81
2022/04/30 01:04:00;;;;;;;;;42.75;36.00;;;;;;;;5091311;27;46034;-79
2022/04/30 01:06:46;;;;;;;;;46.75;39.00;;;;;;;;5091779;27;45350;-80
2022/04/30 01:09:11;;;;;;;;;45.25;37.50;;;;;;;;5088180;28;44811;-79
2022/04/30 01:11:36;;;;;;;;;40.75;35.50;;;;;;;;5086021;27;45528;-80
2022/04/30 01:14:01;;;;;;;;;44.75;37.75;;;;;;;;5088271;28;46041;-79
2022/04/30 01:16:28;;;;;;;;;41.75;36.00;;;;;;;;5101203;27;45246;-80
2022/04/30 01:18:53;;;;;;;;;47.25;37.25;;;;;;;;5104925;27;45301;-79
2022/04/30 01:21:19;;;;;;;;;37.25;34.00;;;;;;;;5101756;27;45514;-80
2022/04/30 01:23:45;;;;;;;;;46.50;37.00;;;;;;;;5101212;27;46672;-80
2022/04/30 01:26:13;;;;;;;;;43.75;37.50;;;;;;;;5101355;27;45225;-80
2022/04/30 01:28:39;;;;;;;;;42.50;36.75;;;;;;;;5103634;27;45293;-80
2022/04/30 01:37:22;;;;;;;;;43.00;35.50;;;;;;;;5101019;27;45586;-80
2022/04/30 01:39:17;;;;;;;;;43.50;36.00;;;;;;;;5100894;27;45503;-80
2022/04/30 01:41:43;;;;;;;;;39.00;33.50;;;;;;;;5100483;27;45557;-80
2022/04/30 01:44:09;;;;;;;;;43.25;35.25;;;;;;;;5103345;27;45356;-80
2022/04/30 01:46:34;;;;;;;;;47.25;38.75;;;;;;;;5100622;27;45279;-80
2022/04/30 01:49:00;;;;;;;;;41.25;36.00;;;;;;;;5101187;27;45381;-79
2022/04/30 01:51:25;;;;;;;;;46.00;38.00;;;;;;;;5100531;27;45340;-80
2022/04/30 01:53:51;;;;;;;;;48.75;37.25;;;;;;;;5099244;27;47081;-80
2022/04/30 01:56:16;;;;;;;;;42.00;35.25;;;;;;;;5100538;27;45477;-80
2022/04/30 01:58:41;;;;;;;;;41.75;36.75;;;;;;;;5100664;27;45321;-80
2022/04/30 02:01:07;;;;;;;;;44.50;36.00;;;;;;;;5100751;27;45531;-80
2022/04/30 02:03:33;;;;;;;;;44.50;36.25;;;;;;;;5100253;27;45504;-80
2022/04/30 02:05:58;;;;;;;;;39.00;34.75;;;;;;;;5098914;27;45462;-80
2022/04/30 02:08:24;;;;;;;;;47.00;37.75;;;;;;;;5100482;27;45258;-80
2022/04/30 02:10:49;;;;;;;;;46.25;38.00;;;;;;;;5100409;27;45238;-79
2022/04/30 02:13:16;;;;;;;;;41.50;34.75;;;;;;;;5099300;27;47065;-80
2022/04/30 02:15:42;;;;;;;;;38.75;33.00;;;;;;;;5089334;27;45234;-80
2022/04/30 02:18:13;;;;;;;;;44.50;37.25;;;;;;;;5078329;28;45334;-80
2022/04/30 02:20:42;;;;;;;;;40.50;35.00;;;;;;;;5079304;27;46521;-80
2022/04/30 02:23:09;;;;;;;;;40.75;35.75;;;;;;;;5079810;28;45393;-80
2022/04/30 02:25:35;;;;;;;;;40.50;35.50;;;;;;;;5079578;28;45338;-80
2022/04/30 02:28:04;;;;;;;;;42.00;35.75;;;;;;;;5079863;28;45290;-80
2022/04/30 02:30:30;;;;;;;;;41.50;35.75;;;;;;;;5079524;27;45270;-80
2022/04/30 02:33:03;;;;;;;;;45.50;36.75;;;;;;;;5079612;27;45293;-79
2022/04/30 02:35:33;;;;;;;;;39.75;35.50;;;;;;;;5079426;27;45423;-80
2022/04/30 02:37:59;;;;;;;;;40.00;34.25;;;;;;;;5078314;28;45334;-80
2022/04/30 02:40:25;;;;;;;;;40.75;34.50;;;;;;;;5079422;28;45388;-80
2022/04/30 02:42:51;;;;;;;;;39.75;34.25;;;;;;;;5079492;28;45333;-80
2022/04/30 02:45:16;;;;;;;;;47.25;36.50;;;;;;;;5079521;27;45325;-80
2022/04/30 02:47:43;;;;;;;;;46.50;38.75;;;;;;;;5078518;28;45303;-80
2022/04/30 02:50:10;;;;;;;;;43.75;36.50;;;;;;;;5079345;28;45406;-80
2022/04/30 02:52:35;;;;;;;;;46.00;35.75;;;;;;;;5081393;27;45363;-80
2022/04/30 02:55:00;;;;;;;;;37.50;31.25;;;;;;;;5081276;28;45309;-79
2022/04/30 02:57:36;;;;;;;;;44.25;36.75;;;;;;;;5083976;28;45192;-80
2022/04/30 03:00:04;;;;;;;;;43.50;36.50;;;;;;;;5084220;27;45305;-80
2022/04/30 03:02:29;;;;;;;;;36.75;32.25;;;;;;;;5082675;27;45369;-80
2022/04/30 03:04:54;;;;;;;;;47.00;37.00;;;;;;;;5099484;27;45407;-80
2022/04/30 03:07:22;;;;;;;;;43.25;36.00;;;;;;;;5082321;28;45576;-81
2022/04/30 03:09:48;;;;;;;;;47.50;36.25;;;;;;;;5083150;28;45207;-81
2022/04/30 03:12:14;;;;;;;;;37.50;34.00;;;;;;;;5082556;28;46225;-81
2022/04/30 03:14:39;;;;;;;;;43.25;34.25;;;;;;;;5083875;27;45340;-81
2022/04/30 03:22:32;;;;;;;;;45.25;36.25;;;;;;;;5102615;27;45684;-81
2022/04/30 03:24:58;;;;;;;;;42.75;34.25;;;;;;;;5102775;27;45266;-81
2022/04/30 03:27:23;;;;;;;;;42.00;36.25;;;;;;;;5102987;27;45215;-80
2022/04/30 03:29:49;;;;;;;;;40.50;34.50;;;;;;;;5103063;27;45218;-81
2022/04/30 03:32:14;;;;;;;;;43.00;36.25;;;;;;;;5101367;27;47260;-80
2022/04/30 03:34:39;;;;;;;;;35.75;32.25;;;;;;;;5102628;27;45170;-82
2022/04/30 03:37:04;;;;;;;;;39.50;35.50;;;;;;;;5103047;27;45208;-81
2022/04/30 03:39:30;;;;;;;;;41.00;34.50;;;;;;;;5101300;27;46955;-81
2022/04/30 03:41:55;;;;;;;;;36.00;33.00;;;;;;;;5102699;27;45950;-82
2022/04/30 03:44:21;;;;;;;;;35.75;33.00;;;;;;;;5102832;27;45325;-81
2022/04/30 03:46:46;;;;;;;;;41.75;34.00;;;;;;;;5102865;27;45246;-82
2022/04/30 03:49:12;;;;;;;;;37.25;34.25;;;;;;;;5102664;27;45251;-81
2022/04/30 03:51:37;;;;;;;;;45.75;37.00;;;;;;;;5101020;27;47167;-81
2022/04/30 03:54:02;;;;;;;;;37.50;33.25;;;;;;;;5101112;27;45289;-82
2022/04/30 03:56:27;;;;;;;;;47.25;38.25;;;;;;;;5101332;27;45345;-81
2022/04/30 03:58:53;;;;;;;;;45.75;34.50;;;;;;;;5102679;27;45518;-81
2022/04/30 04:01:22;;;;;;;;;41.50;34.75;;;;;;;;5102237;27;45699;-82
2022/04/30 04:03:48;;;;;;;;;40.50;32.75;;;;;;;;5100958;27;45358;-82
2022/04/30 04:06:13;;;;;;;;;39.00;34.25;;;;;;;;5102219;27;45224;-81
2022/04/30 04:08:39;;;;;;;;;45.00;37.50;;;;;;;;5102080;27;45257;-81
2022/04/30 04:11:10;;;;;;;;;46.25;36.00;;;;;;;;5102224;27;46252;-81
2022/04/30 04:19:03;;;;;;;;;40.25;33.50;;;;;;;;5081463;28;45342;-82
2022/04/30 04:21:29;;;;;;;;;38.00;34.50;;;;;;;;5081598;27;45442;-82
2022/04/30 04:26:38;;;;;;;;;41.50;35.75;;;;;;;;5082221;28;45858;-80
2022/04/30 04:29:03;;;;;;;;;44.50;34.25;;;;;;;;5097892;27;46036;-80
2022/04/30 04:31:28;;;;;;;;;46.75;37.00;;;;;;;;5082127;28;45467;-80
2022/04/30 04:33:54;;;;;;;;;44.75;38.00;;;;;;;;5081373;28;45329;-81
2022/04/30 04:36:19;;;;;;;;;42.75;36.50;;;;;;;;5081678;27;45317;-80
2022/04/30 04:38:44;;;;;;;;;45.25;37.25;;;;;;;;5081219;27;45279;-80
2022/04/30 04:41:10;;;;;;;;;41.00;35.00;;;;;;;;5080995;27;45345;-81
2022/04/30 04:43:35;;;;;;;;;44.00;37.25;;;;;;;;5078214;28;45225;-80
2022/04/30 04:46:02;;;;;;;;;43.75;37.50;;;;;;;;5079952;28;45299;-80
2022/04/30 04:48:27;;;;;;;;;46.00;38.25;;;;;;;;5081054;27;45248;-80
2022/04/30 04:50:52;;;;;;;;;45.25;37.50;;;;;;;;5081027;27;45353;-80
2022/04/30 04:53:18;;;;;;;;;43.75;38.25;;;;;;;;5081203;28;45270;-80
2022/04/30 04:55:43;;;;;;;;;45.50;37.00;;;;;;;;5081308;27;45164;-80
2022/04/30 04:58:08;;;;;;;;;47.25;37.25;;;;;;;;5080853;27;45227;-80
2022/04/30 05:00:33;;;;;;;;;48.75;39.50;;;;;;;;5080885;27;45329;-80
2022/04/30 05:02:59;;;;;;;;;45.75;39.00;;;;;;;;5080849;27;45263;-79
2022/04/30 05:05:24;;;;;;;;;48.75;38.25;;;;;;;;5065529;27;45346;-80
2022/04/30 05:07:49;;;;;;;;;49.00;40.00;;;;;;;;5060804;28;45256;-78
2022/04/30 05:10:15;;;;;;;;;48.00;40.00;;;;;;;;5060488;28;45204;-81
2022/04/30 05:12:43;;;;;;;;;51.25;41.00;;;;;;;;5060740;28;45224;-81
2022/04/30 05:15:08;;;;;;;;;46.00;38.25;;;;;;;;5067344;27;45339;-82
2022/04/30 05:17:33;;;;;;;;;47.25;39.50;;;;;;;;5080741;27;45345;-81
2022/04/30 05:19:58;;;;;;;;;50.50;41.50;;;;;;;;5079051;28;47091;-81
2022/04/30 05:22:24;;;;;;;;;45.50;37.50;;;;;;;;5080816;28;45236;-80
2022/04/30 05:24:49;;;;;;;;;51.00;42.75;;;;;;;;5080978;27;45324;-79
2022/04/30 05:27:14;;;;;;;;;46.50;37.25;;;;;;;;5080537;27;45408;-79
2022/04/30 05:29:40;;;;;;;;;50.25;41.00;;;;;;;;5080658;28;45359;-79
2022/04/30 05:32:05;;;;;;;;;48.25;39.25;;;;;;;;5079179;28;45457;-79
2022/04/30 05:34:30;;;;;;;;;47.50;39.00;;;;;;;;5080626;27;45280;-79
2022/04/30 05:36:56;;;;;;;;;46.75;39.50;;;;;;;;5080501;28;45326;-79
2022/04/30 05:39:21;;;;;;;;;46.25;38.50;;;;;;;;5080463;27;45362;-78
2022/04/30 05:41:46;;;;;;;;;48.25;36.25;;;;;;;;5080714;27;45293;-79
2022/04/30 05:44:12;;;;;;;;;50.50;42.25;;;;;;;;5080691;27;45302;-79
2022/04/30 05:46:37;;;;;;;;;48.75;40.25;;;;;;;;5080480;27;45399;-80
2022/04/30 05:49:02;;;;;;;;;48.75;40.25;;;;;;;;5080065;28;45344;-79
2022/04/30 05:51:27;;;;;;;;;53.50;40.25;;;;;;;;5080293;27;45212;-80
2022/04/30 05:53:52;;;;;;;;;48.75;40.50;;;;;;;;5080634;27;45195;-79
2022/04/30 05:56:18;;;;;;;;;53.00;42.25;;;;;;;;5080348;27;45206;-80
2022/04/30 05:58:43;;;;;;;;;43.75;38.00;;;;;;;;5080302;28;45372;-79
2022/04/30 06:01:09;;;;;;;;;48.00;40.50;;;;;;;;5078896;28;45321;-79
2022/04/30 06:03:34;;;;;;;;;52.50;42.25;;;;;;;;5080190;27;45433;-79
2022/04/30 06:06:00;;;;;;;;;52.00;43.00;;;;;;;;5080300;27;45161;-80
2022/04/30 06:08:25;;;;;;;;;48.25;39.25;;;;;;;;5079897;27;45276;-80
2022/04/30 06:10:50;;;;;;;;;49.25;39.50;;;;;;;;5080210;28;45218;-79
2022/04/30 06:13:15;;;;;;;;;48.50;40.00;;;;;;;;5080251;27;45551;-78
2022/04/30 06:15:40;;;;;;;;;50.50;42.50;;;;;;;;5089499;27;45242;-77
2022/04/30 06:18:06;;;;;;;;;50.25;41.25;;;;;;;;5100150;27;46272;-77
2022/04/30 06:20:31;;;;;;;;;45.75;39.00;;;;;;;;5100490;27;45233;-77
2022/04/30 06:22:57;;;;;;;;;50.50;40.75;;;;;;;;5100428;27;45226;-76
2022/04/30 06:25:22;;;;;;;;;47.00;36.75;;;;;;;;5100378;27;45175;-76
2022/04/30 06:27:47;;;;;;;;;50.75;41.50;;;;;;;;5102419;27;45328;-76
2022/04/30 06:30:12;;;;;;;;;51.25;42.00;;;;;;;;5104109;27;45173;-77
2022/04/30 06:32:37;;;;;;;;;44.25;36.25;;;;;;;;5102517;27;45364;-76
2022/04/30 06:35:03;;;;;;;;;52.00;43.00;;;;;;;;5103588;27;45289;-76
2022/04/30 06:37:29;;;;;;;;;49.50;39.75;;;;;;;;5101770;27;47242;-80
2022/04/30 06:39:54;;;;;;;;;50.50;41.25;;;;;;;;5102914;27;45304;-79
2022/04/30 06:42:19;;;;;;;;;45.75;36.75;;;;;;;;5102242;27;45258;-77
2022/04/30 06:44:45;;;;;;;;;41.00;35.25;;;;;;;;5101599;27;46302;-79
2022/04/30 06:47:10;;;;;;;;;49.25;40.75;;;;;;;;5102631;27;45290;-78
2022/04/30 06:49:36;;;;;;;;;52.25;41.25;;;;;;;;5101106;27;45341;-79
2022/04/30 06:52:01;;;;;;;;;46.75;39.75;;;;;;;;5101212;27;45301;-78
2022/04/30 06:57:17;;;;;;;;;47.25;38.50;;;;;;;;5102291;27;45772;-79
2022/04/30 06:59:42;;;;;;;;;44.00;36.50;;;;;;;;5100989;27;45344;-80
2022/04/30 07:02:18;;;;;;;;;48.75;40.50;;;;;;;;5102512;27;45428;-79
2022/04/30 07:04:44;;;;;;;;;41.25;36.00;;;;;;;;5102399;27;45308;-78
2022/04/30 07:07:10;;;;;;;;;46.75;38.50;;;;;;;;5100847;27;47386;-80
2022/04/30 07:09:35;;;;;;;;;46.00;37.50;;;;;;;;5100811;27;45561;-80
2022/04/30 07:12:06;;;;;;;;;45.25;37.50;;;;;;;;5102912;27;46002;-80
2022/04/30 07:14:32;;;;;;;;;45.25;37.50;;;;;;;;5100911;27;45704;-80
2022/04/30 07:16:57;;;;;;;;;50.50;40.25;;;;;;;;5082364;27;45208;-80
2022/04/30 07:19:22;;;;;;;;;41.25;36.25;;;;;;;;5082747;27;45536;-79
2022/04/30 07:21:47;;;;;;;;;46.75;38.50;;;;;;;;5083087;27;45425;-79
2022/04/30 07:24:13;;;;;;;;;45.00;37.25;;;;;;;;5082755;27;45726;-78
2022/04/30 07:26:38;;;;;;;;;47.00;39.00;;;;;;;;5082428;27;46309;-79
2022/04/30 07:29:03;;;;;;;;;47.75;40.75;;;;;;;;5082854;27;45388;-80
2022/04/30 07:31:28;;;;;;;;;42.25;35.75;;;;;;;;5081202;28;45981;-78
2022/04/30 07:33:54;;;;;;;;;43.50;36.00;;;;;;;;5083371;27;45664;-78
2022/04/30 07:36:19;;;;;;;;;44.75;38.25;;;;;;;;5081028;28;47225;-79
2022/04/30 07:38:45;;;;;;;;;48.50;39.75;;;;;;;;5082127;28;45322;-78
2022/04/30 07:41:10;;;;;;;;;42.25;36.00;;;;;;;;5081298;28;45284;-79
2022/04/30 07:43:35;;;;;;;;;43.50;35.25;;;;;;;;5082387;27;45527;-79
2022/04/30 07:46:00;;;;;;;;;41.50;36.50;;;;;;;;5082408;27;45392;-78
2022/04/30 07:48:25;;;;;;;;;48.00;38.25;;;;;;;;5080349;28;45295;-79
2022/04/30 07:50:57;;;;;;;;;44.00;36.25;;;;;;;;5085224;27;45361;-78
2022/04/30 07:53:22;;;;;;;;;43.25;36.25;;;;;;;;5086133;28;46404;-79
2022/04/30 07:55:47;;;;;;;;;39.50;33.00;;;;;;;;5076212;28;48109;-78
2022/04/30 07:58:12;;;;;;;;;36.75;32.25;;;;;;;;5082722;28;45332;-77
2022/04/30 08:00:38;;;;;;;;;42.75;34.50;;;;;;;;5078818;27;45750;-78
2022/04/30 08:03:03;;;;;;;;;38.50;34.25;;;;;;;;5079067;28;45952;-78
2022/04/30 08:05:29;;;;;;;;;41.25;33.25;;;;;;;;5076278;27;45366;-76
2022/04/30 08:07:54;;;;;;;;;38.25;32.75;;;;;;;;5076555;28;45370;-77
2022/04/30 08:10:19;;;;;;;;;37.75;30.75;;;;;;;;5078721;28;45421;-77
2022/04/30 08:12:45;;;;;;;;;39.25;32.50;;;;;;;;5078898;27;45452;-77
2022/04/30 08:15:10;;;;;;;;;29.00;27.75;;;;;;;;5074367;27;48150;-78
2022/04/30 08:17:38;;;;;;;;;34.50;31.00;;;;;;;;5075357;28;45366;-75
2022/04/30 08:20:03;;;;;;;;;29.00;28.25;;;;;;;;5083445;27;45389;-75
2022/04/30 08:22:28;;;;;;;;;31.50;30.50;;;;;;;;5077551;28;45219;-77
2022/04/30 08:24:54;;;;;;;;;35.25;31.25;;;;;;;;5080814;27;45404;-76
2022/04/30 08:27:19;;;;;;;;;37.50;32.50;;;;;;;;5080873;27;45334;-75
2022/04/30 08:29:44;;;;;;;;;36.25;32.50;;;;;;;;5084265;28;45279;-79
2022/04/30 08:32:10;;;;;;;;;34.00;30.25;;;;;;;;5087241;28;45892;-77
2022/04/30 08:34:35;;;;;;;;;38.00;33.00;;;;;;;;5085931;28;48297;-79
2022/04/30 08:37:00;;;;;;;;;36.00;32.00;;;;;;;;5085531;27;45248;-78
2022/04/30 08:39:25;;;;;;;;;32.50;30.75;;;;;;;;5089056;27;45223;-77
2022/04/30 08:41:51;;;;;;;;;34.50;29.75;;;;;;;;5079760;27;45654;-77
2022/04/30 08:44:17;;;;;;;;;34.75;30.75;;;;;;;;5085337;28;46997;-77
2022/04/30 08:46:42;;;;;;;;;33.25;31.00;;;;;;;;5093110;27;45311;-76
2022/04/30 08:49:08;;;;;;;;;36.00;33.00;;;;;;;;5093868;27;44773;-76
2022/04/30 08:51:33;;;;;;;;;35.50;31.50;;;;;;;;5089480;27;45406;-76
2022/04/30 08:53:59;;;;;;;;;33.25;31.00;;;;;;;;5077854;27;46732;-77
2022/04/30 08:56:24;;;;;;;;;32.00;29.25;;;;;;;;5092725;27;45353;-77
2022/04/30 08:58:50;;;;;;;;;34.00;29.75;;;;;;;;5088490;27;45325;-77
2022/04/30 09:01:16;;;;;;;;;34.00;29.00;;;;;;;;5089611;28;45605;-78
2022/04/30 09:03:41;;;;;;;;;32.25;29.50;;;;;;;;5086515;28;47304;-77
2022/04/30 09:06:06;;;;;;;;;32.75;29.25;;;;;;;;5088004;27;45408;-78
2022/04/30 09:08:32;;;;;;;;;25.50;25.25;;;;;;;;5091546;28;45464;-78
2022/04/30 09:11:04;;;;;;;;;28.00;25.50;;;;;;;;5087280;28;47135;-77
2022/04/30 09:13:29;;;;;;;;;23.75;23.00;;;;;;;;5088190;27;45397;-78
2022/04/30 09:15:56;;;;;;;;;30.50;29.00;;;;;;;;5090356;28;45361;-77
2022/04/30 09:18:21;;;;;;;;;26.50;25.50;;;;;;;;5095957;28;45368;-76
2022/04/30 09:20:48;;;;;;;;;25.00;23.67;;;;;;;;5092174;27;45399;-78
2022/04/30 09:23:26;;;;;;;;;21.33;20.00;;;;;;;;5088746;27;45440;-77
2022/04/30 09:25:56;;;;;;;;;24.33;23.33;;;;;;;;5086730;28;45441;-77
2022/04/30 09:28:26;;;;;;;;;24.00;24.00;;;;;;;;5087212;28;45295;-76
2022/04/30 09:30:51;;;;;;;;;28.50;26.75;;;;;;;;5088571;27;45519;-78
2022/04/30 09:33:18;;;;;;;;;26.00;24.00;;;;;;;;5089852;28;45256;-76
2022/04/30 09:38:36;;;;;;;;;21.33;19.67;;;;;;;;5072343;28;45440;-78
2022/04/30 09:41:06;;;;;;;;;22.67;22.00;;;;;;;;5072875;28;45434;-78
2022/04/30 09:43:32;;;;;;;;;23.00;21.00;;;;;;;;5065838;28;47313;-77
2022/04/30 09:46:01;;;;;;;;;20.67;20.67;;;;;;;;5069017;28;45311;-78
2022/04/30 09:53:57;;;;;;;;;19.67;19.33;;;;;;;;5067085;28;45386;-77
2022/04/30 09:56:44;;;;;;;;;23.33;22.33;;;;;;;;5075263;28;45306;-77
2022/04/30 09:59:11;;;;;;;;;21.00;20.67;;;;;;;;5070918;28;45422;-77
2022/04/30 10:01:39;;;;;;;;;19.67;18.33;;;;;;;;5073893;28;45452;-77
2022/04/30 10:04:08;;;;;;;;;24.33;23.33;;;;;;;;5078410;28;47196;-77
2022/04/30 10:06:44;;;;;;;;;23.00;23.00;;;;;;;;5088554;27;45310;-76
2022/04/30 10:09:10;;;;;;;;;22.00;22.00;;;;;;;;5086782;27;45334;-77
2022/04/30 10:11:54;;;;;;;;;24.00;24.00;;;;;;;;5085706;27;45480;-78
2022/04/30 10:14:22;;;;;;;;;22.67;21.67;;;;;;;;5065862;27;47509;-76
2022/04/30 10:17:10;;;;;;;;;20.67;19.67;;;;;;;;5093394;27;45448;-76
2022/04/30 10:19:33;;;;;;;;;22.33;21.00;;;;;;;;5079798;27;45310;-76
2022/04/30 10:22:09;;;;;;;;;24.33;23.00;;;;;;;;5079879;28;45516;-77
2022/04/30 10:24:34;;;;;;;;;22.67;22.00;;;;;;;;5084436;28;48197;-78
2022/04/30 10:26:59;;;;;;;;;24.33;23.00;;;;;;;;5095431;28;44717;-77
2022/04/30 10:29:24;;;;;;;;;20.00;20.00;;;;;;;;5082137;28;45381;-78
2022/04/30 10:31:50;;;;;;;;;21.00;20.67;;;;;;;;5083439;27;45337;-78
2022/04/30 10:34:15;;;;;;;;;21.33;18.00;;;;;;;;5083395;28;47796;-78
2022/04/30 10:36:40;;;;;;;;;21.33;20.00;;;;;;;;5086382;28;45240;-78
2022/04/30 10:39:09;;;;;;;;;22.00;20.33;;;;;;;;5090518;27;45393;-78
2022/04/30 10:41:45;;;;;;;;;21.67;18.33;;;;;;;;5081520;27;45340;-78
2022/04/30 10:44:12;;;;;;;;;20.67;18.33;;;;;;;;5081513;28;47485;-78
2022/04/30 10:46:38;;;;;;;;;20.00;20.00;;;;;;;;5080760;27;45401;-78
2022/04/30 10:49:04;;;;;;;;;19.00;19.00;;;;;;;;5079344;28;45370;-76
2022/04/30 10:51:43;;;;;;;;;18.33;18.33;;;;;;;;5081564;27;45330;-78
2022/04/30 10:54:10;;;;;;;;;19.67;19.67;;;;;;;;5080919;28;46195;-76
2022/04/30 10:56:35;;;;;;;;;19.00;18.67;;;;;;;;5081209;27;45440;-77
2022/04/30 10:59:00;;;;;;;;;22.00;20.33;;;;;;;;5082933;27;45789;-77
2022/04/30 11:01:26;;;;;;;;;19.00;19.00;;;;;;;;5079191;28;46158;-76
2022/04/30 11:03:51;;;;;;;;;18.00;17.67;;;;;;;;5081177;27;45266;-78
2022/04/30 11:06:24;;;;;;;;;18.33;18.33;;;;;;;;5081298;27;45286;-79
2022/04/30 11:09:15;;;;;;;;;17.00;16.33;;;;;;;;5080634;28;45272;-76
2022/04/30 11:11:44;;;;;;;;;16.00;16.00;;;;;;;;5080345;27;45720;-77
2022/04/30 11:14:10;;;;;;;;;16.67;13.33;;;;;;;;5084240;28;46045;-78
2022/04/30 11:16:44;;;;;;;;;14.00;14.00;;;;;;;;5101973;27;45328;-77
2022/04/30 11:19:11;;;;;;;;;13.33;12.00;;;;;;;;5105334;27;45381;-78
2022/04/30 11:21:37;;;;;;;;;12.00;12.00;;;;;;;;5103860;27;45452;-77
2022/04/30 11:24:03;;;;;;;;;12.00;12.00;;;;;;;;5104423;27;45397;-77
2022/04/30 11:26:30;;;;;;;;;10.00;10.00;;;;;;;;5103819;27;45310;-78
2022/04/30 11:28:56;;;;;;;;;14.33;13.00;;;;;;;;5104808;27;45192;-77
2022/04/30 11:31:21;;;;;;;;;7.67;7.67;;;;;;;;5104330;27;45270;-77
2022/04/30 11:33:46;;;;;;;;;10.00;10.00;;;;;;;;5103826;27;47609;-78
2022/04/30 11:36:12;;;;;;;;;10.00;10.00;;;;;;;;5105515;27;45148;-77
2022/04/30 11:38:38;;;;;;;;;9.67;9.67;;;;;;;;5105883;27;45420;-77
2022/04/30 11:41:07;;;;;;;;;9.00;8.67;;;;;;;;5105103;27;45342;-77
2022/04/30 11:43:33;;;;;;;;;11.67;9.67;;;;;;;;5105853;27;46092;-75
2022/04/30 11:46:02;;;;;;;;;9.00;9.00;;;;;;;;5102821;27;45359;-77
2022/04/30 11:48:31;;;;;;;;;9.00;9.00;;;;;;;;5105043;27;45552;-77
2022/04/30 11:50:57;;;;;;;;;8.00;8.00;;;;;;;;5103834;27;46109;-76
2022/04/30 11:53:22;;;;;;;;;6.00;6.00;;;;;;;;5105721;27;45349;-77
2022/04/30 11:55:48;;;;;;;;;6.67;6.67;;;;;;;;5103701;27;45383;-76
2022/04/30 11:58:13;;;;;;;;;3.00;3.00;;;;;;;;5104577;27;45257;-76
2022/04/30 12:00:38;;;;;;;;;8.00;7.00;;;;;;;;5106587;27;45253;-75
2022/04/30 12:03:04;;;;;;;;;8.33;8.33;;;;;;;;5103596;27;46024;-75
2022/04/30 12:05:30;;;;;;;;;5.00;4.00;;;;;;;;5106360;27;45346;-76
2022/04/30 12:07:59;;;;;;;;;5.67;5.67;;;;;;;;5108177;27;45275;-76
2022/04/30 12:10:26;;;;;;;;;7.00;7.00;;;;;;;;5105915;27;47235;-75
2022/04/30 12:12:52;;;;;;;;;7.67;5.67;;;;;;;;5105127;27;45360;-75
2022/04/30 12:15:21;;;;;;;;;7.00;7.00;;;;;;;;5098162;27;45802;-75
2022/04/30 12:24:40;;;;;;;;;4.33;4.33;;;;;;;;5086366;27;45140;-75
2022/04/30 12:26:05;;;;;;;;;5.00;5.00;;;;;;;;5085266;28;45317;-76
2022/04/30 12:28:42;;;;;;;;;6.00;6.00;;;;;;;;5087024;28;45370;-74
2022/04/30 12:31:09;;;;;;;;;5.00;5.00;;;;;;;;5087882;27;45493;-76
2022/04/30 12:33:41;;;;;;;;;6.00;6.00;;;;;;;;5083382;28;47539;-75
2022/04/30 12:36:10;;;;;;;;;7.33;6.33;;;;;;;;5084018;27;45454;-73
2022/04/30 12:38:36;;;;;;;;;7.00;6.00;;;;;;;;5073175;27;45646;-74
2022/04/30 12:41:01;;;;;;;;;5.00;5.00;;;;;;;;5080880;27;45870;-73
2022/04/30 12:43:31;;;;;;;;;8.33;7.00;;;;;;;;5080531;28;46232;-74
2022/04/30 12:45:56;;;;;;;;;5.67;5.67;;;;;;;;5078553;28;45886;-73
2022/04/30 12:48:21;;;;;;;;;5.00;5.00;;;;;;;;5080555;27;45293;-73
2022/04/30 12:50:46;;;;;;;;;6.33;5.00;;;;;;;;5080598;28;45527;-74
2022/04/30 12:53:12;;;;;;;;;6.00;4.67;;;;;;;;5079127;27;48078;-74
2022/04/30 12:55:38;;;;;;;;;6.00;6.00;;;;;;;;5080387;28;45412;-73
2022/04/30 12:58:03;;;;;;;;;4.67;4.00;;;;;;;;5077380;28;45357;-74
2022/04/30 13:00:29;;;;;;;;;6.00;6.00;;;;;;;;5080892;27;45395;-73
2022/04/30 13:02:54;;;;;;;;;6.00;6.00;;;;;;;;5079440;28;47060;-74
2022/04/30 13:05:19;;;;;;;;;6.00;6.00;;;;;;;;5079943;27;45269;-74
2022/04/30 13:07:45;;;;;;;;;6.67;5.67;;;;;;;;5079725;27;45331;-74
2022/04/30 13:15:53;;;;;;;;;5.00;5.00;;;;;;;;5079966;27;45456;-73
2022/04/30 13:18:18;;;;;;;;;5.00;4.33;;;;;;;;5079595;27;45409;-73
2022/04/30 13:20:43;;;;;;;;;5.33;5.33;;;;;;;;5078416;28;46182;-73
2022/04/30 13:23:08;;;;;;;;;5.00;5.00;;;;;;;;5079951;28;45397;-74
2022/04/30 13:25:34;;;;;;;;;3.00;3.00;;;;;;;;5079727;28;45332;-74
2022/04/30 13:27:59;;;;;;;;;5.33;5.33;;;;;;;;5079569;27;45533;-74
2022/04/30 13:30:25;;;;;;;;;7.67;7.00;;;;;;;;5078372;28;45811;-73
2022/04/30 13:32:50;;;;;;;;;4.33;4.33;;;;;;;;5078286;28;46983;-74
2022/04/30 13:35:16;;;;;;;;;5.33;5.33;;;;;;;;5069588;28;45357;-74
2022/04/30 13:37:42;;;;;;;;;5.67;5.67;;;;;;;;5083671;27;45515;-74
2022/04/30 13:40:07;;;;;;;;;5.00;5.00;;;;;;;;5088014;27;45345;-73
2022/04/30 13:42:33;;;;;;;;;5.00;5.00;;;;;;;;5085706;27;46446;-73
2022/04/30 13:44:58;;;;;;;;;7.00;6.00;;;;;;;;5087503;27;45279;-74
2022/04/30 13:47:23;;;;;;;;;7.00;7.00;;;;;;;;5085047;28;44728;-74
2022/04/30 13:49:48;;;;;;;;;7.00;7.00;;;;;;;;5084998;28;46111;-74
2022/04/30 13:52:14;;;;;;;;;6.00;6.00;;;;;;;;5082715;27;45357;-75
2022/04/30 13:54:39;;;;;;;;;7.33;6.33;;;;;;;;5083103;27;45352;-73
2022/04/30 13:57:04;;;;;;;;;7.00;7.00;;;;;;;;5075079;28;45337;-75
2022/04/30 13:59:33;;;;;;;;;7.67;6.67;;;;;;;;5081650;28;45947;-75
2022/04/30 14:02:00;;;;;;;;;9.00;6.00;;;;;;;;5074418;28;45499;-75
2022/04/30 14:04:25;;;;;;;;;7.33;7.33;;;;;;;;5081869;28;45365;-74
2022/04/30 14:06:52;;;;;;;;;9.33;7.33;;;;;;;;5086688;27;45275;-73
2022/04/30 14:09:17;;;;;;;;;8.00;8.00;;;;;;;;5086194;28;45360;-74
2022/04/30 14:11:42;;;;;;;;;6.67;6.00;;;;;;;;5086765;27;46467;-75
2022/04/30 14:16:53;;;;;;;;;5.33;5.33;;;;;;;;5081675;27;45302;-75
2022/04/30 14:19:18;;;;;;;;;6.33;6.33;;;;;;;;5087582;27;45440;-76
2022/04/30 14:21:43;;;;;;;;;6.00;6.00;;;;;;;;5084280;28;45402;-74
2022/04/30 14:24:10;;;;;;;;;7.00;6.00;;;;;;;;5082194;27;45301;-74
2022/04/30 14:26:37;;;;;;;;;8.00;7.00;;;;;;;;5087581;27;45410;-75
2022/04/30 14:29:02;;;;;;;;;8.67;8.00;;;;;;;;5091516;27;45480;-74
2022/04/30 14:31:28;;;;;;;;;6.00;6.00;;;;;;;;5081764;27;45437;-74
2022/04/30 14:33:53;;;;;;;;;7.67;7.67;;;;;;;;5085138;27;45380;-75
2022/04/30 14:36:18;;;;;;;;;9.00;7.67;;;;;;;;5081492;28;45527;-75
2022/04/30 14:38:44;;;;;;;;;8.67;7.00;;;;;;;;5081633;27;45535;-74
2022/04/30 14:41:09;;;;;;;;;8.00;7.00;;;;;;;;5084367;28;48721;-74
2022/04/30 14:43:34;;;;;;;;;7.33;6.33;;;;;;;;5079704;27;44765;-74
2022/04/30 14:46:02;;;;;;;;;7.00;7.00;;;;;;;;5084011;27;45761;-75
2022/04/30 14:48:27;;;;;;;;;8.00;7.33;;;;;;;;5084106;28;47298;-74
2022/04/30 14:50:52;;;;;;;;;6.00;6.00;;;;;;;;5089227;27;45760;-74
2022/04/30 14:53:18;;;;;;;;;8.33;8.33;;;;;;;;5087072;28;45327;-75
2022/04/30 14:55:43;;;;;;;;;4.67;4.67;;;;;;;;5090578;27;45298;-74
2022/04/30 14:58:08;;;;;;;;;6.00;6.00;;;;;;;;5086848;28;45337;-74
2022/04/30 15:00:33;;;;;;;;;5.00;5.00;;;;;;;;5090254;27;45404;-74
2022/04/30 15:02:59;;;;;;;;;6.33;6.00;;;;;;;;5088271;27;45248;-75